sensor_id;sensor_type;location;lat;lon;timestamp;P1;durP1;ratioP1;P2;durP2;ratioP2
4486;SDS011;2256;48.740;9.106;2023-04-10T00:00:22;23.10;;;11.90;;
4486;SDS011;2256;48.740;9.106;2023-04-10T00:02:49;21.05;;;11.68;;
4486;SDS011;2256;48.740;9.106;2023-04-10T00:05:16;24.15;;;12.10;;
4486;SDS011;2256;48.740;9.106;2023-04-10T00:07:43;23.35;;;12.18;;
4486;SDS011;2256;48.740;9.106;2023-04-10T00:10:09;28.23;;;11.55;;
4486;SDS011;2256;48.740;9.106;2023-04-10T00:12:36;22.63;;;12.85;;
4486;SDS011;2256;48.740;9.106;2023-04-10T00:15:03;26.27;;;13.15;;
4486;SDS011;2256;48.740;9.106;2023-04-10T00:17:31;19.25;;;10.68;;
4486;SDS011;2256;48.740;9.106;2023-04-10T00:19:58;24.38;;;12.30;;
4486;SDS011;2256;48.740;9.106;2023-04-10T00:22:25;23.13;;;11.90;;
4486;SDS011;2256;48.740;9.106;2023-04-10T00:24:52;28.92;;;13.38;;
4486;SDS011;2256;48.740;9.106;2023-04-10T00:27:18;30.98;;;13.63;;
4486;SDS011;2256;48.740;9.106;2023-04-10T00:29:45;24.60;;;12.50;;
4486;SDS011;2256;48.740;9.106;2023-04-10T00:32:12;22.08;;;12.30;;
4486;SDS011;2256;48.740;9.106;2023-04-10T00:34:41;26.20;;;12.07;;
4486;SDS011;2256;48.740;9.106;2023-04-10T00:37:07;27.33;;;12.77;;
4486;SDS011;2256;48.740;9.106;2023-04-10T00:39:34;23.45;;;12.10;;
4486;SDS011;2256;48.740;9.106;2023-04-10T00:42:01;29.70;;;12.73;;
4486;SDS011;2256;48.740;9.106;2023-04-10T00:44:28;27.27;;;12.15;;
4486;SDS011;2256;48.740;9.106;2023-04-10T00:46:54;29.05;;;12.70;;
4486;SDS011;2256;48.740;9.106;2023-04-10T00:49:21;23.95;;;12.05;;
4486;SDS011;2256;48.740;9.106;2023-04-10T00:51:49;25.65;;;12.25;;
4486;SDS011;2256;48.740;9.106;2023-04-10T00:54:16;22.90;;;12.07;;
4486;SDS011;2256;48.740;9.106;2023-04-10T00:56:43;25.40;;;13.80;;
4486;SDS011;2256;48.740;9.106;2023-04-10T00:59:11;22.73;;;11.40;;
4486;SDS011;2256;48.740;9.106;2023-04-10T01:01:37;21.52;;;11.88;;
4486;SDS011;2256;48.740;9.106;2023-04-10T01:04:04;25.63;;;12.82;;
4486;SDS011;2256;48.740;9.106;2023-04-10T01:06:34;28.52;;;13.40;;
4486;SDS011;2256;48.740;9.106;2023-04-10T01:09:14;23.35;;;12.73;;
4486;SDS011;2256;48.740;9.106;2023-04-10T01:11:47;25.35;;;12.35;;
4486;SDS011;2256;48.740;9.106;2023-04-10T01:14:22;26.13;;;13.15;;
4486;SDS011;2256;48.740;9.106;2023-04-10T01:16:57;25.85;;;12.45;;
4486;SDS011;2256;48.740;9.106;2023-04-10T01:19:35;29.80;;;13.02;;
4486;SDS011;2256;48.740;9.106;2023-04-10T01:22:24;32.85;;;13.15;;
4486;SDS011;2256;48.740;9.106;2023-04-10T01:24:58;25.77;;;12.68;;
4486;SDS011;2256;48.740;9.106;2023-04-10T01:27:39;24.30;;;12.32;;
4486;SDS011;2256;48.740;9.106;2023-04-10T01:30:16;29.08;;;13.23;;
4486;SDS011;2256;48.740;9.106;2023-04-10T01:32:45;31.52;;;12.85;;
4486;SDS011;2256;48.740;9.106;2023-04-10T01:35:13;23.05;;;10.95;;
4486;SDS011;2256;48.740;9.106;2023-04-10T01:37:41;34.92;;;12.88;;
4486;SDS011;2256;48.740;9.106;2023-04-10T01:40:13;32.42;;;11.73;;
4486;SDS011;2256;48.740;9.106;2023-04-10T01:42:42;23.85;;;11.32;;
4486;SDS011;2256;48.740;9.106;2023-04-10T01:45:13;32.28;;;13.63;;
4486;SDS011;2256;48.740;9.106;2023-04-10T01:47:44;24.30;;;11.98;;
4486;SDS011;2256;48.740;9.106;2023-04-10T01:50:11;22.58;;;12.23;;
4486;SDS011;2256;48.740;9.106;2023-04-10T01:52:38;28.00;;;12.30;;
4486;SDS011;2256;48.740;9.106;2023-04-10T01:55:06;28.23;;;13.35;;
4486;SDS011;2256;48.740;9.106;2023-04-10T01:57:34;23.55;;;11.70;;
4486;SDS011;2256;48.740;9.106;2023-04-10T02:00:00;24.70;;;12.60;;
4486;SDS011;2256;48.740;9.106;2023-04-10T02:02:30;23.23;;;12.10;;
4486;SDS011;2256;48.740;9.106;2023-04-10T02:04:57;24.25;;;13.07;;
4486;SDS011;2256;48.740;9.106;2023-04-10T02:07:26;23.45;;;12.18;;
4486;SDS011;2256;48.740;9.106;2023-04-10T02:10:01;25.10;;;12.23;;
4486;SDS011;2256;48.740;9.106;2023-04-10T02:12:35;28.70;;;14.10;;
4486;SDS011;2256;48.740;9.106;2023-04-10T02:15:07;22.45;;;12.23;;
4486;SDS011;2256;48.740;9.106;2023-04-10T02:17:37;23.42;;;12.75;;
4486;SDS011;2256;48.740;9.106;2023-04-10T02:20:05;30.30;;;13.57;;
4486;SDS011;2256;48.740;9.106;2023-04-10T02:22:33;27.92;;;13.73;;
4486;SDS011;2256;48.740;9.106;2023-04-10T02:25:02;26.63;;;13.02;;
4486;SDS011;2256;48.740;9.106;2023-04-10T02:27:31;28.13;;;13.07;;
4486;SDS011;2256;48.740;9.106;2023-04-10T02:29:58;24.45;;;12.02;;
4486;SDS011;2256;48.740;9.106;2023-04-10T02:32:26;24.73;;;13.13;;
4486;SDS011;2256;48.740;9.106;2023-04-10T02:34:54;28.55;;;13.95;;
4486;SDS011;2256;48.740;9.106;2023-04-10T02:37:21;28.95;;;12.63;;
4486;SDS011;2256;48.740;9.106;2023-04-10T02:39:48;28.95;;;13.30;;
4486;SDS011;2256;48.740;9.106;2023-04-10T02:42:15;26.48;;;13.48;;
4486;SDS011;2256;48.740;9.106;2023-04-10T02:44:42;25.77;;;12.60;;
4486;SDS011;2256;48.740;9.106;2023-04-10T02:47:09;28.42;;;12.98;;
4486;SDS011;2256;48.740;9.106;2023-04-10T02:49:36;26.05;;;13.25;;
4486;SDS011;2256;48.740;9.106;2023-04-10T02:52:04;27.42;;;13.60;;
4486;SDS011;2256;48.740;9.106;2023-04-10T02:54:31;23.50;;;12.80;;
4486;SDS011;2256;48.740;9.106;2023-04-10T02:56:58;26.63;;;11.35;;
4486;SDS011;2256;48.740;9.106;2023-04-10T02:59:25;25.00;;;12.85;;
4486;SDS011;2256;48.740;9.106;2023-04-10T03:01:52;24.75;;;12.90;;
4486;SDS011;2256;48.740;9.106;2023-04-10T03:04:18;28.20;;;12.70;;
4486;SDS011;2256;48.740;9.106;2023-04-10T03:06:45;27.42;;;13.48;;
4486;SDS011;2256;48.740;9.106;2023-04-10T03:09:13;27.67;;;12.95;;
4486;SDS011;2256;48.740;9.106;2023-04-10T03:11:41;23.50;;;11.35;;
4486;SDS011;2256;48.740;9.106;2023-04-10T03:14:07;26.90;;;12.57;;
4486;SDS011;2256;48.740;9.106;2023-04-10T03:16:34;27.90;;;12.82;;
4486;SDS011;2256;48.740;9.106;2023-04-10T03:19:01;28.83;;;14.20;;
4486;SDS011;2256;48.740;9.106;2023-04-10T03:21:28;23.98;;;12.90;;
4486;SDS011;2256;48.740;9.106;2023-04-10T03:23:55;22.42;;;11.13;;
4486;SDS011;2256;48.740;9.106;2023-04-10T03:26:23;22.02;;;11.25;;
4486;SDS011;2256;48.740;9.106;2023-04-10T03:28:50;28.45;;;12.90;;
4486;SDS011;2256;48.740;9.106;2023-04-10T03:31:16;26.25;;;11.85;;
4486;SDS011;2256;48.740;9.106;2023-04-10T03:33:43;28.65;;;13.23;;
4486;SDS011;2256;48.740;9.106;2023-04-10T03:36:10;26.63;;;13.13;;
4486;SDS011;2256;48.740;9.106;2023-04-10T03:38:37;26.52;;;13.77;;
4486;SDS011;2256;48.740;9.106;2023-04-10T03:41:04;27.20;;;12.35;;
4486;SDS011;2256;48.740;9.106;2023-04-10T03:43:32;26.52;;;13.15;;
4486;SDS011;2256;48.740;9.106;2023-04-10T03:45:59;27.77;;;13.13;;
4486;SDS011;2256;48.740;9.106;2023-04-10T03:48:26;22.20;;;11.80;;
4486;SDS011;2256;48.740;9.106;2023-04-10T03:50:54;26.20;;;12.18;;
4486;SDS011;2256;48.740;9.106;2023-04-10T03:53:21;21.98;;;11.63;;
4486;SDS011;2256;48.740;9.106;2023-04-10T03:55:48;28.33;;;13.60;;
4486;SDS011;2256;48.740;9.106;2023-04-10T03:58:16;29.15;;;13.00;;
4486;SDS011;2256;48.740;9.106;2023-04-10T04:00:45;24.17;;;11.57;;
4486;SDS011;2256;48.740;9.106;2023-04-10T04:03:12;29.33;;;13.18;;
4486;SDS011;2256;48.740;9.106;2023-04-10T04:05:38;22.58;;;11.90;;
4486;SDS011;2256;48.740;9.106;2023-04-10T04:08:05;23.10;;;11.40;;
4486;SDS011;2256;48.740;9.106;2023-04-10T04:10:32;23.73;;;11.88;;
4486;SDS011;2256;48.740;9.106;2023-04-10T04:12:59;22.15;;;11.20;;
4486;SDS011;2256;48.740;9.106;2023-04-10T04:15:25;26.05;;;12.43;;
4486;SDS011;2256;48.740;9.106;2023-04-10T04:17:54;28.33;;;11.45;;
4486;SDS011;2256;48.740;9.106;2023-04-10T04:20:21;22.00;;;10.93;;
4486;SDS011;2256;48.740;9.106;2023-04-10T04:22:48;25.85;;;11.50;;
4486;SDS011;2256;48.740;9.106;2023-04-10T04:25:15;21.42;;;11.43;;
4486;SDS011;2256;48.740;9.106;2023-04-10T04:27:43;23.55;;;11.55;;
4486;SDS011;2256;48.740;9.106;2023-04-10T04:30:10;26.40;;;11.77;;
4486;SDS011;2256;48.740;9.106;2023-04-10T04:32:37;25.92;;;12.38;;
4486;SDS011;2256;48.740;9.106;2023-04-10T04:35:06;21.20;;;11.70;;
4486;SDS011;2256;48.740;9.106;2023-04-10T04:37:33;22.67;;;12.40;;
4486;SDS011;2256;48.740;9.106;2023-04-10T04:40:00;24.23;;;11.85;;
4486;SDS011;2256;48.740;9.106;2023-04-10T04:42:27;26.45;;;11.80;;
4486;SDS011;2256;48.740;9.106;2023-04-10T04:44:54;26.90;;;11.90;;
4486;SDS011;2256;48.740;9.106;2023-04-10T04:47:21;27.75;;;11.93;;
4486;SDS011;2256;48.740;9.106;2023-04-10T04:49:49;23.75;;;11.57;;
4486;SDS011;2256;48.740;9.106;2023-04-10T04:52:17;27.02;;;11.85;;
4486;SDS011;2256;48.740;9.106;2023-04-10T04:54:44;26.02;;;13.05;;
4486;SDS011;2256;48.740;9.106;2023-04-10T04:57:10;25.63;;;12.27;;
4486;SDS011;2256;48.740;9.106;2023-04-10T04:59:37;21.65;;;10.93;;
4486;SDS011;2256;48.740;9.106;2023-04-10T05:02:04;24.80;;;11.25;;
4486;SDS011;2256;48.740;9.106;2023-04-10T05:04:31;19.17;;;10.63;;
4486;SDS011;2256;48.740;9.106;2023-04-10T05:06:58;22.75;;;10.68;;
4486;SDS011;2256;48.740;9.106;2023-04-10T05:09:26;20.98;;;10.68;;
4486;SDS011;2256;48.740;9.106;2023-04-10T05:11:53;21.83;;;11.10;;
4486;SDS011;2256;48.740;9.106;2023-04-10T05:14:19;17.38;;;9.32;;
4486;SDS011;2256;48.740;9.106;2023-04-10T05:16:47;17.42;;;10.10;;
4486;SDS011;2256;48.740;9.106;2023-04-10T05:19:13;21.83;;;11.45;;
4486;SDS011;2256;48.740;9.106;2023-04-10T05:21:40;17.63;;;10.23;;
4486;SDS011;2256;48.740;9.106;2023-04-10T05:24:07;22.20;;;10.52;;
4486;SDS011;2256;48.740;9.106;2023-04-10T05:26:35;18.65;;;10.98;;
4486;SDS011;2256;48.740;9.106;2023-04-10T05:29:02;23.60;;;10.50;;
4486;SDS011;2256;48.740;9.106;2023-04-10T05:31:29;16.60;;;10.07;;
4486;SDS011;2256;48.740;9.106;2023-04-10T05:33:56;19.45;;;10.90;;
4486;SDS011;2256;48.740;9.106;2023-04-10T05:36:23;20.15;;;9.60;;
4486;SDS011;2256;48.740;9.106;2023-04-10T05:38:50;19.58;;;10.02;;
4486;SDS011;2256;48.740;9.106;2023-04-10T05:41:17;18.13;;;9.48;;
4486;SDS011;2256;48.740;9.106;2023-04-10T05:43:46;19.90;;;10.25;;
4486;SDS011;2256;48.740;9.106;2023-04-10T05:46:13;22.88;;;10.90;;
4486;SDS011;2256;48.740;9.106;2023-04-10T05:48:40;17.70;;;10.20;;
4486;SDS011;2256;48.740;9.106;2023-04-10T05:51:07;21.05;;;9.77;;
4486;SDS011;2256;48.740;9.106;2023-04-10T05:53:34;18.70;;;10.63;;
4486;SDS011;2256;48.740;9.106;2023-04-10T05:56:00;19.15;;;10.48;;
4486;SDS011;2256;48.740;9.106;2023-04-10T05:58:27;16.90;;;9.70;;
4486;SDS011;2256;48.740;9.106;2023-04-10T06:00:55;18.08;;;9.75;;
4486;SDS011;2256;48.740;9.106;2023-04-10T06:03:22;16.27;;;9.82;;
4486;SDS011;2256;48.740;9.106;2023-04-10T06:05:51;17.73;;;9.82;;
4486;SDS011;2256;48.740;9.106;2023-04-10T06:08:18;19.93;;;10.33;;
4486;SDS011;2256;48.740;9.106;2023-04-10T06:10:45;17.57;;;9.47;;
4486;SDS011;2256;48.740;9.106;2023-04-10T06:13:11;17.17;;;10.00;;
4486;SDS011;2256;48.740;9.106;2023-04-10T06:15:38;18.90;;;10.00;;
4486;SDS011;2256;48.740;9.106;2023-04-10T06:18:07;21.33;;;9.93;;
4486;SDS011;2256;48.740;9.106;2023-04-10T06:20:34;15.87;;;9.20;;
4486;SDS011;2256;48.740;9.106;2023-04-10T06:23:01;15.50;;;9.63;;
4486;SDS011;2256;48.740;9.106;2023-04-10T06:25:27;17.07;;;9.27;;
4486;SDS011;2256;48.740;9.106;2023-04-10T06:27:54;16.67;;;9.00;;
4486;SDS011;2256;48.740;9.106;2023-04-10T06:30:21;15.40;;;8.90;;
4486;SDS011;2256;48.740;9.106;2023-04-10T06:32:49;15.93;;;9.63;;
4486;SDS011;2256;48.740;9.106;2023-04-10T06:35:17;13.70;;;8.40;;
4486;SDS011;2256;48.740;9.106;2023-04-10T06:37:45;13.53;;;8.20;;
4486;SDS011;2256;48.740;9.106;2023-04-10T06:40:12;15.83;;;9.17;;
4486;SDS011;2256;48.740;9.106;2023-04-10T06:42:40;14.97;;;8.77;;
4486;SDS011;2256;48.740;9.106;2023-04-10T06:45:07;13.77;;;8.60;;
4486;SDS011;2256;48.740;9.106;2023-04-10T06:47:34;15.53;;;8.47;;
4486;SDS011;2256;48.740;9.106;2023-04-10T06:50:01;14.33;;;8.97;;
4486;SDS011;2256;48.740;9.106;2023-04-10T06:52:29;13.40;;;7.90;;
4486;SDS011;2256;48.740;9.106;2023-04-10T06:54:56;14.70;;;8.60;;
4486;SDS011;2256;48.740;9.106;2023-04-10T06:57:22;13.70;;;8.70;;
4486;SDS011;2256;48.740;9.106;2023-04-10T06:59:49;12.73;;;8.33;;
4486;SDS011;2256;48.740;9.106;2023-04-10T07:02:16;13.43;;;8.43;;
4486;SDS011;2256;48.740;9.106;2023-04-10T07:04:43;12.33;;;7.77;;
4486;SDS011;2256;48.740;9.106;2023-04-10T07:07:10;13.90;;;8.43;;
4486;SDS011;2256;48.740;9.106;2023-04-10T07:09:38;13.00;;;8.70;;
4486;SDS011;2256;48.740;9.106;2023-04-10T07:12:05;15.23;;;8.60;;
4486;SDS011;2256;48.740;9.106;2023-04-10T07:14:32;12.60;;;8.03;;
4486;SDS011;2256;48.740;9.106;2023-04-10T07:16:59;13.93;;;7.80;;
4486;SDS011;2256;48.740;9.106;2023-04-10T07:19:26;12.17;;;7.63;;
4486;SDS011;2256;48.740;9.106;2023-04-10T07:21:53;11.30;;;8.17;;
4486;SDS011;2256;48.740;9.106;2023-04-10T07:24:20;10.60;;;7.40;;
4486;SDS011;2256;48.740;9.106;2023-04-10T07:26:48;12.20;;;8.20;;
4486;SDS011;2256;48.740;9.106;2023-04-10T07:29:15;11.43;;;7.63;;
4486;SDS011;2256;48.740;9.106;2023-04-10T07:31:41;10.37;;;7.20;;
4486;SDS011;2256;48.740;9.106;2023-04-10T07:34:09;12.67;;;7.63;;
4486;SDS011;2256;48.740;9.106;2023-04-10T07:36:36;16.50;;;7.67;;
4486;SDS011;2256;48.740;9.106;2023-04-10T07:39:02;8.50;;;6.43;;
4486;SDS011;2256;48.740;9.106;2023-04-10T07:41:29;10.17;;;6.80;;
4486;SDS011;2256;48.740;9.106;2023-04-10T07:43:58;9.57;;;6.40;;
4486;SDS011;2256;48.740;9.106;2023-04-10T07:46:24;7.40;;;5.50;;
4486;SDS011;2256;48.740;9.106;2023-04-10T07:48:52;10.00;;;6.80;;
4486;SDS011;2256;48.740;9.106;2023-04-10T07:51:20;9.63;;;6.80;;
4486;SDS011;2256;48.740;9.106;2023-04-10T07:53:47;9.60;;;6.67;;
4486;SDS011;2256;48.740;9.106;2023-04-10T07:56:14;8.07;;;5.80;;
4486;SDS011;2256;48.740;9.106;2023-04-10T07:58:42;8.70;;;6.33;;
4486;SDS011;2256;48.740;9.106;2023-04-10T08:01:10;8.63;;;6.20;;
4486;SDS011;2256;48.740;9.106;2023-04-10T08:03:37;8.47;;;6.57;;
4486;SDS011;2256;48.740;9.106;2023-04-10T08:06:05;9.27;;;5.90;;
4486;SDS011;2256;48.740;9.106;2023-04-10T08:08:33;7.40;;;5.30;;
4486;SDS011;2256;48.740;9.106;2023-04-10T08:11:00;6.83;;;4.80;;
4486;SDS011;2256;48.740;9.106;2023-04-10T08:13:27;8.67;;;6.10;;
4486;SDS011;2256;48.740;9.106;2023-04-10T08:15:54;8.40;;;5.40;;
4486;SDS011;2256;48.740;9.106;2023-04-10T08:18:22;8.43;;;5.23;;
4486;SDS011;2256;48.740;9.106;2023-04-10T08:20:48;7.03;;;4.73;;
4486;SDS011;2256;48.740;9.106;2023-04-10T08:23:15;7.00;;;4.90;;
4486;SDS011;2256;48.740;9.106;2023-04-10T08:25:42;7.77;;;5.57;;
4486;SDS011;2256;48.740;9.106;2023-04-10T08:28:10;6.40;;;5.07;;
4486;SDS011;2256;48.740;9.106;2023-04-10T08:30:36;7.23;;;5.20;;
4486;SDS011;2256;48.740;9.106;2023-04-10T08:33:03;8.50;;;5.07;;
4486;SDS011;2256;48.740;9.106;2023-04-10T08:35:31;7.70;;;4.73;;
4486;SDS011;2256;48.740;9.106;2023-04-10T08:37:58;8.83;;;4.90;;
4486;SDS011;2256;48.740;9.106;2023-04-10T08:40:25;7.20;;;4.50;;
4486;SDS011;2256;48.740;9.106;2023-04-10T08:42:51;6.10;;;4.80;;
4486;SDS011;2256;48.740;9.106;2023-04-10T08:45:18;9.00;;;4.87;;
4486;SDS011;2256;48.740;9.106;2023-04-10T08:47:45;6.07;;;4.40;;
4486;SDS011;2256;48.740;9.106;2023-04-10T08:50:16;6.20;;;4.37;;
4486;SDS011;2256;48.740;9.106;2023-04-10T08:52:45;7.50;;;4.60;;
4486;SDS011;2256;48.740;9.106;2023-04-10T08:55:16;7.23;;;4.80;;
4486;SDS011;2256;48.740;9.106;2023-04-10T08:57:44;5.87;;;4.33;;
4486;SDS011;2256;48.740;9.106;2023-04-10T09:00:12;7.03;;;5.20;;
4486;SDS011;2256;48.740;9.106;2023-04-10T09:02:40;9.00;;;4.20;;
4486;SDS011;2256;48.740;9.106;2023-04-10T09:05:09;6.50;;;4.50;;
4486;SDS011;2256;48.740;9.106;2023-04-10T09:07:38;5.67;;;4.47;;
4486;SDS011;2256;48.740;9.106;2023-04-10T09:10:06;6.53;;;4.90;;
4486;SDS011;2256;48.740;9.106;2023-04-10T09:12:43;5.27;;;4.07;;
4486;SDS011;2256;48.740;9.106;2023-04-10T09:15:11;6.27;;;4.10;;
4486;SDS011;2256;48.740;9.106;2023-04-10T09:17:40;6.13;;;4.60;;
4486;SDS011;2256;48.740;9.106;2023-04-10T09:20:20;6.23;;;3.93;;
4486;SDS011;2256;48.740;9.106;2023-04-10T09:22:48;3.93;;;3.30;;
4486;SDS011;2256;48.740;9.106;2023-04-10T09:25:30;6.43;;;4.30;;
4486;SDS011;2256;48.740;9.106;2023-04-10T09:28:01;5.37;;;3.60;;
4486;SDS011;2256;48.740;9.106;2023-04-10T09:30:32;5.40;;;3.70;;
4486;SDS011;2256;48.740;9.106;2023-04-10T09:33:00;4.70;;;3.67;;
4486;SDS011;2256;48.740;9.106;2023-04-10T09:35:34;4.40;;;3.60;;
4486;SDS011;2256;48.740;9.106;2023-04-10T09:38:12;7.07;;;3.73;;
4486;SDS011;2256;48.740;9.106;2023-04-10T09:40:42;8.00;;;3.40;;
4486;SDS011;2256;48.740;9.106;2023-04-10T09:43:16;4.00;;;3.50;;
4486;SDS011;2256;48.740;9.106;2023-04-10T09:45:48;6.20;;;3.17;;
4486;SDS011;2256;48.740;9.106;2023-04-10T09:48:16;4.90;;;3.50;;
4486;SDS011;2256;48.740;9.106;2023-04-10T09:50:43;4.30;;;3.20;;
4486;SDS011;2256;48.740;9.106;2023-04-10T09:53:11;5.10;;;3.50;;
4486;SDS011;2256;48.740;9.106;2023-04-10T09:55:39;4.77;;;3.37;;
4486;SDS011;2256;48.740;9.106;2023-04-10T09:58:08;4.33;;;3.33;;
4486;SDS011;2256;48.740;9.106;2023-04-10T10:00:37;4.30;;;3.27;;
4486;SDS011;2256;48.740;9.106;2023-04-10T10:03:06;6.23;;;3.33;;
4486;SDS011;2256;48.740;9.106;2023-04-10T10:05:34;7.63;;;3.33;;
4486;SDS011;2256;48.740;9.106;2023-04-10T10:08:02;4.30;;;2.93;;
4486;SDS011;2256;48.740;9.106;2023-04-10T10:10:29;6.23;;;3.33;;
4486;SDS011;2256;48.740;9.106;2023-04-10T10:12:59;3.80;;;3.20;;
4486;SDS011;2256;48.740;9.106;2023-04-10T10:15:30;4.00;;;3.10;;
4486;SDS011;2256;48.740;9.106;2023-04-10T10:18:02;5.63;;;3.20;;
4486;SDS011;2256;48.740;9.106;2023-04-10T10:20:36;4.90;;;3.30;;
4486;SDS011;2256;48.740;9.106;2023-04-10T10:23:05;4.73;;;3.07;;
4486;SDS011;2256;48.740;9.106;2023-04-10T10:25:33;3.80;;;3.00;;
4486;SDS011;2256;48.740;9.106;2023-04-10T10:28:02;3.60;;;3.30;;
4486;SDS011;2256;48.740;9.106;2023-04-10T10:30:31;4.77;;;3.30;;
4486;SDS011;2256;48.740;9.106;2023-04-10T10:32:59;3.63;;;3.00;;
4486;SDS011;2256;48.740;9.106;2023-04-10T10:35:29;4.13;;;3.00;;
4486;SDS011;2256;48.740;9.106;2023-04-10T10:37:57;3.67;;;2.87;;
4486;SDS011;2256;48.740;9.106;2023-04-10T10:40:26;8.43;;;2.70;;
4486;SDS011;2256;48.740;9.106;2023-04-10T10:42:59;3.07;;;2.70;;
4486;SDS011;2256;48.740;9.106;2023-04-10T10:45:35;2.77;;;2.30;;
4486;SDS011;2256;48.740;9.106;2023-04-10T10:48:06;3.27;;;2.47;;
4486;SDS011;2256;48.740;9.106;2023-04-10T10:50:52;2.77;;;2.50;;
4486;SDS011;2256;48.740;9.106;2023-04-10T10:53:37;3.03;;;2.53;;
4486;SDS011;2256;48.740;9.106;2023-04-10T10:59:01;2.47;;;2.27;;
4486;SDS011;2256;48.740;9.106;2023-04-10T11:01:28;2.90;;;2.60;;
4486;SDS011;2256;48.740;9.106;2023-04-10T11:03:55;2.53;;;2.23;;
4486;SDS011;2256;48.740;9.106;2023-04-10T11:12:12;2.97;;;2.67;;
4486;SDS011;2256;48.740;9.106;2023-04-10T11:14:41;3.83;;;2.10;;
4486;SDS011;2256;48.740;9.106;2023-04-10T11:17:10;2.53;;;1.97;;
4486;SDS011;2256;48.740;9.106;2023-04-10T11:22:23;3.50;;;1.97;;
4486;SDS011;2256;48.740;9.106;2023-04-10T11:24:56;2.60;;;2.37;;
4486;SDS011;2256;48.740;9.106;2023-04-10T11:30:27;1.73;;;1.63;;
4486;SDS011;2256;48.740;9.106;2023-04-10T11:32:55;2.63;;;1.93;;
4486;SDS011;2256;48.740;9.106;2023-04-10T11:35:23;2.20;;;1.87;;
4486;SDS011;2256;48.740;9.106;2023-04-10T11:37:51;1.80;;;1.70;;
4486;SDS011;2256;48.740;9.106;2023-04-10T11:40:32;1.57;;;1.47;;
4486;SDS011;2256;48.740;9.106;2023-04-10T11:43:10;2.30;;;1.90;;
4486;SDS011;2256;48.740;9.106;2023-04-10T11:45:39;1.87;;;1.77;;
4486;SDS011;2256;48.740;9.106;2023-04-10T11:48:06;1.87;;;1.77;;
4486;SDS011;2256;48.740;9.106;2023-04-10T11:50:33;2.30;;;1.80;;
4486;SDS011;2256;48.740;9.106;2023-04-10T11:53:00;3.03;;;1.73;;
4486;SDS011;2256;48.740;9.106;2023-04-10T11:55:35;2.27;;;1.80;;
4486;SDS011;2256;48.740;9.106;2023-04-10T11:58:03;1.77;;;1.67;;
4486;SDS011;2256;48.740;9.106;2023-04-10T12:00:30;1.53;;;1.43;;
4486;SDS011;2256;48.740;9.106;2023-04-10T12:02:58;1.43;;;1.33;;
4486;SDS011;2256;48.740;9.106;2023-04-10T12:05:25;1.47;;;1.37;;
4486;SDS011;2256;48.740;9.106;2023-04-10T12:07:52;1.43;;;1.33;;
4486;SDS011;2256;48.740;9.106;2023-04-10T12:10:19;1.50;;;1.40;;
4486;SDS011;2256;48.740;9.106;2023-04-10T12:12:46;2.17;;;1.40;;
4486;SDS011;2256;48.740;9.106;2023-04-10T12:15:25;1.43;;;1.30;;
4486;SDS011;2256;48.740;9.106;2023-04-10T12:17:53;2.77;;;1.30;;
4486;SDS011;2256;48.740;9.106;2023-04-10T12:20:22;1.80;;;1.60;;
4486;SDS011;2256;48.740;9.106;2023-04-10T12:22:53;1.60;;;1.50;;
4486;SDS011;2256;48.740;9.106;2023-04-10T12:25:20;5.80;;;1.50;;
4486;SDS011;2256;48.740;9.106;2023-04-10T12:27:48;1.40;;;1.30;;
4486;SDS011;2256;48.740;9.106;2023-04-10T12:30:15;1.37;;;1.27;;
4486;SDS011;2256;48.740;9.106;2023-04-10T12:32:49;1.23;;;1.13;;
4486;SDS011;2256;48.740;9.106;2023-04-10T12:35:17;1.37;;;1.20;;
4486;SDS011;2256;48.740;9.106;2023-04-10T12:37:49;9.70;;;1.37;;
4486;SDS011;2256;48.740;9.106;2023-04-10T12:40:18;1.30;;;1.20;;
4486;SDS011;2256;48.740;9.106;2023-04-10T12:42:45;3.33;;;1.20;;
4486;SDS011;2256;48.740;9.106;2023-04-10T12:45:12;1.40;;;1.30;;
4486;SDS011;2256;48.740;9.106;2023-04-10T12:47:42;3.33;;;1.10;;
4486;SDS011;2256;48.740;9.106;2023-04-10T12:50:12;1.10;;;1.10;;
4486;SDS011;2256;48.740;9.106;2023-04-10T12:52:40;1.57;;;1.30;;
4486;SDS011;2256;48.740;9.106;2023-04-10T12:55:14;1.80;;;1.40;;
4486;SDS011;2256;48.740;9.106;2023-04-10T12:57:43;1.53;;;1.43;;
4486;SDS011;2256;48.740;9.106;2023-04-10T13:00:11;1.50;;;1.40;;
4486;SDS011;2256;48.740;9.106;2023-04-10T13:02:40;3.07;;;1.43;;
4486;SDS011;2256;48.740;9.106;2023-04-10T13:05:08;1.53;;;1.20;;
4486;SDS011;2256;48.740;9.106;2023-04-10T13:07:35;1.57;;;1.47;;
4486;SDS011;2256;48.740;9.106;2023-04-10T13:10:02;1.73;;;1.60;;
4486;SDS011;2256;48.740;9.106;2023-04-10T13:12:31;1.70;;;1.60;;
4486;SDS011;2256;48.740;9.106;2023-04-10T13:14:59;2.70;;;2.00;;
4486;SDS011;2256;48.740;9.106;2023-04-10T13:17:26;1.97;;;1.40;;
4486;SDS011;2256;48.740;9.106;2023-04-10T13:19:52;2.37;;;1.63;;
4486;SDS011;2256;48.740;9.106;2023-04-10T13:22:19;1.83;;;1.73;;
4486;SDS011;2256;48.740;9.106;2023-04-10T13:24:46;1.90;;;1.70;;
4486;SDS011;2256;48.740;9.106;2023-04-10T13:27:13;2.33;;;2.00;;
4486;SDS011;2256;48.740;9.106;2023-04-10T13:29:41;2.20;;;1.70;;
4486;SDS011;2256;48.740;9.106;2023-04-10T13:32:08;2.50;;;2.13;;
4486;SDS011;2256;48.740;9.106;2023-04-10T13:34:35;2.20;;;2.00;;
4486;SDS011;2256;48.740;9.106;2023-04-10T13:37:02;3.10;;;2.37;;
4486;SDS011;2256;48.740;9.106;2023-04-10T13:39:29;2.83;;;1.90;;
4486;SDS011;2256;48.740;9.106;2023-04-10T13:41:56;2.10;;;1.90;;
4486;SDS011;2256;48.740;9.106;2023-04-10T13:44:23;1.90;;;1.80;;
4486;SDS011;2256;48.740;9.106;2023-04-10T13:46:51;1.73;;;1.40;;
4486;SDS011;2256;48.740;9.106;2023-04-10T13:49:18;2.50;;;2.10;;
4486;SDS011;2256;48.740;9.106;2023-04-10T13:51:46;3.23;;;1.50;;
4486;SDS011;2256;48.740;9.106;2023-04-10T13:54:13;2.63;;;2.03;;
4486;SDS011;2256;48.740;9.106;2023-04-10T13:56:41;1.97;;;1.77;;
4486;SDS011;2256;48.740;9.106;2023-04-10T13:59:08;1.90;;;1.77;;
4486;SDS011;2256;48.740;9.106;2023-04-10T14:01:35;9.33;;;6.13;;
4486;SDS011;2256;48.740;9.106;2023-04-10T14:04:03;3.90;;;3.00;;
4486;SDS011;2256;48.740;9.106;2023-04-10T14:06:30;2.53;;;2.00;;
4486;SDS011;2256;48.740;9.106;2023-04-10T14:08:57;2.20;;;1.97;;
4486;SDS011;2256;48.740;9.106;2023-04-10T14:11:23;1.80;;;1.70;;
4486;SDS011;2256;48.740;9.106;2023-04-10T14:13:50;2.50;;;1.70;;
4486;SDS011;2256;48.740;9.106;2023-04-10T14:16:17;1.70;;;1.60;;
4486;SDS011;2256;48.740;9.106;2023-04-10T14:18:44;1.90;;;1.50;;
4486;SDS011;2256;48.740;9.106;2023-04-10T14:21:12;1.90;;;1.80;;
4486;SDS011;2256;48.740;9.106;2023-04-10T14:23:39;1.77;;;1.40;;
4486;SDS011;2256;48.740;9.106;2023-04-10T14:26:06;1.63;;;1.53;;
4486;SDS011;2256;48.740;9.106;2023-04-10T14:28:33;2.00;;;1.90;;
4486;SDS011;2256;48.740;9.106;2023-04-10T14:31:00;1.60;;;1.50;;
4486;SDS011;2256;48.740;9.106;2023-04-10T14:33:27;1.93;;;1.83;;
4486;SDS011;2256;48.740;9.106;2023-04-10T14:35:54;2.30;;;2.10;;
4486;SDS011;2256;48.740;9.106;2023-04-10T14:38:22;2.23;;;2.03;;
4486;SDS011;2256;48.740;9.106;2023-04-10T14:40:49;3.20;;;2.20;;
4486;SDS011;2256;48.740;9.106;2023-04-10T14:43:17;5.07;;;3.33;;
4486;SDS011;2256;48.740;9.106;2023-04-10T14:45:44;4.00;;;2.00;;
4486;SDS011;2256;48.740;9.106;2023-04-10T14:48:11;1.77;;;1.60;;
4486;SDS011;2256;48.740;9.106;2023-04-10T14:50:38;2.10;;;1.83;;
4486;SDS011;2256;48.740;9.106;2023-04-10T14:53:05;1.70;;;1.60;;
4486;SDS011;2256;48.740;9.106;2023-04-10T14:55:35;2.10;;;1.30;;
4486;SDS011;2256;48.740;9.106;2023-04-10T14:58:01;1.90;;;1.70;;
4486;SDS011;2256;48.740;9.106;2023-04-10T15:00:31;2.03;;;1.50;;
4486;SDS011;2256;48.740;9.106;2023-04-10T15:02:58;1.77;;;1.67;;
4486;SDS011;2256;48.740;9.106;2023-04-10T15:05:25;1.87;;;1.67;;
4486;SDS011;2256;48.740;9.106;2023-04-10T15:07:52;1.70;;;1.60;;
4486;SDS011;2256;48.740;9.106;2023-04-10T15:10:19;2.07;;;1.63;;
4486;SDS011;2256;48.740;9.106;2023-04-10T15:12:47;2.37;;;2.00;;
4486;SDS011;2256;48.740;9.106;2023-04-10T15:15:15;1.97;;;1.73;;
4486;SDS011;2256;48.740;9.106;2023-04-10T15:17:42;3.33;;;2.13;;
4486;SDS011;2256;48.740;9.106;2023-04-10T15:20:09;1.80;;;1.70;;
4486;SDS011;2256;48.740;9.106;2023-04-10T15:22:37;1.30;;;1.20;;